createdAt,value
2019-04-13T00:01:39.598Z,31.83
2019-04-13T00:04:09.316Z,23.13
2019-04-13T00:06:40.454Z,19.40
2019-04-13T00:09:11.559Z,28.53
2019-04-13T00:11:48.478Z,24.50
2019-04-13T00:14:20.267Z,22.60
2019-04-13T00:16:49.774Z,21.80
2019-04-13T00:19:19.224Z,31.63
2019-04-13T00:21:48.710Z,24.27
2019-04-13T00:24:18.172Z,25.17
2019-04-13T00:26:47.614Z,30.60
2019-04-13T00:29:17.108Z,31.70
2019-04-13T00:31:46.564Z,26.67
2019-04-13T00:34:16.015Z,27.13
2019-04-13T00:36:45.677Z,25.90
2019-04-13T00:39:15.301Z,30.37
2019-04-13T00:41:44.759Z,25.40
2019-04-13T00:44:14.224Z,24.77
2019-04-13T00:46:43.690Z,23.00
2019-04-13T00:49:13.143Z,22.07
2019-04-13T00:51:42.627Z,28.70
2019-04-13T00:54:12.071Z,22.13
2019-04-13T00:56:41.508Z,31.23
2019-04-13T00:59:10.991Z,28.20
2019-04-13T01:01:40.430Z,32.03
2019-04-13T01:04:09.868Z,28.77
2019-04-13T01:06:39.373Z,23.40
2019-04-13T01:09:09.256Z,24.20
2019-04-13T01:11:39.368Z,24.30
2019-04-13T01:14:08.909Z,23.07
2019-04-13T01:16:38.432Z,24.90
2019-04-13T01:19:07.887Z,25.33
2019-04-13T01:21:37.356Z,22.30
2019-04-13T01:24:06.798Z,23.27
2019-04-13T01:26:36.256Z,20.10
2019-04-13T01:29:05.803Z,23.40
2019-04-13T01:31:35.250Z,30.93
2019-04-13T01:34:04.686Z,26.63
2019-04-13T01:36:34.177Z,20.90
2019-04-13T01:39:05.265Z,21.67
2019-04-13T01:41:34.787Z,24.40
2019-04-13T01:44:04.248Z,23.00
2019-04-13T01:46:33.688Z,22.77
2019-04-13T01:49:03.138Z,21.57
2019-04-13T01:51:32.616Z,19.93
2019-04-13T01:54:02.059Z,23.87
2019-04-13T01:56:31.490Z,18.93
2019-04-13T01:59:00.969Z,22.17
2019-04-13T02:01:32.061Z,23.70
2019-04-13T02:04:09.381Z,21.47
2019-04-13T02:06:40.459Z,21.70
2019-04-13T02:09:19.823Z,22.50
2019-04-13T02:11:49.282Z,26.13
2019-04-13T02:14:18.715Z,23.53
2019-04-13T02:16:48.196Z,27.50
2019-04-13T02:19:17.644Z,24.37
2019-04-13T02:21:47.102Z,24.97
2019-04-13T02:24:17.679Z,21.30
2019-04-13T02:26:47.119Z,21.10
2019-04-13T02:29:16.571Z,21.37
2019-04-13T02:31:46.058Z,20.80
2019-04-13T02:34:15.515Z,25.27
2019-04-13T02:36:44.961Z,19.50
2019-04-13T02:39:14.439Z,22.20
2019-04-13T02:41:43.885Z,26.20
2019-04-13T02:44:13.335Z,26.97
2019-04-13T02:46:42.824Z,25.50
2019-04-13T02:49:12.269Z,24.47
2019-04-13T02:51:41.705Z,21.63
2019-04-13T02:54:11.180Z,19.03
2019-04-13T02:56:40.619Z,24.43
2019-04-13T02:59:10.064Z,24.60
2019-04-13T03:01:39.535Z,24.17
2019-04-13T03:04:09.450Z,19.80
2019-04-13T03:06:39.063Z,20.73
2019-04-13T03:09:09.242Z,19.20
2019-04-13T03:11:39.131Z,19.30
2019-04-13T03:14:08.577Z,22.70
2019-04-13T03:16:56.315Z,20.57
2019-04-13T03:19:30.072Z,22.10
2019-04-13T03:21:59.515Z,20.00
2019-04-13T03:24:29.004Z,22.13
2019-04-13T03:26:58.465Z,20.67
2019-04-13T03:29:27.900Z,19.97
2019-04-13T03:31:57.377Z,24.80
2019-04-13T03:34:26.846Z,19.20
2019-04-13T03:36:56.360Z,18.60
2019-04-13T03:39:25.868Z,18.93
2019-04-13T03:41:55.321Z,17.97
2019-04-13T03:44:24.768Z,20.23
2019-04-13T03:46:54.243Z,21.27
2019-04-13T03:49:23.692Z,19.57
2019-04-13T03:51:53.147Z,18.50
2019-04-13T03:54:22.615Z,18.27
2019-04-13T03:56:52.173Z,17.73
2019-04-13T03:59:21.624Z,24.17
2019-04-13T04:01:51.085Z,19.00
2019-04-13T04:04:20.531Z,18.70
2019-04-13T04:06:49.987Z,19.60
2019-04-13T04:09:19.464Z,24.53
2019-04-13T04:11:48.908Z,25.20
2019-04-13T04:14:18.532Z,22.07
2019-04-13T04:16:48.034Z,17.07
2019-04-13T04:19:17.476Z,18.90
2019-04-13T04:21:46.940Z,20.67
2019-04-13T04:24:16.413Z,15.90
2019-04-13T04:26:45.867Z,20.53
2019-04-13T04:29:15.305Z,19.93
2019-04-13T04:31:45.153Z,17.97
2019-04-13T04:34:14.598Z,17.87
2019-04-13T04:36:44.052Z,16.77
2019-04-13T04:39:13.529Z,20.43
2019-04-13T04:41:42.965Z,17.10
2019-04-13T04:44:12.412Z,24.10
2019-04-13T04:46:41.930Z,20.30
2019-04-13T04:49:11.381Z,20.50
2019-04-13T04:51:40.826Z,21.53
2019-04-13T04:54:10.286Z,22.60
2019-04-13T04:56:39.731Z,25.93
2019-04-13T04:59:09.188Z,24.40
2019-04-13T05:01:38.667Z,15.17
2019-04-13T05:04:08.133Z,25.60
2019-04-13T05:06:37.574Z,22.00
2019-04-13T05:09:07.652Z,24.63
2019-04-13T05:11:37.093Z,20.73
2019-04-13T05:14:06.548Z,20.97
2019-04-13T05:16:36.088Z,20.67
2019-04-13T05:19:05.632Z,17.10
2019-04-13T05:21:35.074Z,19.37
2019-04-13T05:24:04.552Z,18.40
2019-04-13T05:26:33.985Z,22.60
2019-04-13T05:29:03.450Z,17.40
2019-04-13T05:31:32.911Z,17.20
2019-04-13T05:34:02.359Z,19.23
2019-04-13T05:36:31.802Z,17.63
2019-04-13T05:39:01.279Z,21.10
2019-04-13T05:41:30.731Z,18.17
2019-04-13T05:44:00.176Z,26.23
2019-04-13T05:46:29.647Z,18.63
2019-04-13T05:48:59.169Z,18.53
2019-04-13T05:51:28.616Z,20.97
2019-04-13T05:53:58.109Z,22.70
2019-04-13T05:56:27.588Z,22.83
2019-04-13T05:59:03.145Z,16.73
2019-04-13T06:01:28.247Z,23.03
2019-04-13T06:03:57.767Z,19.20
2019-04-13T06:06:27.291Z,26.27
2019-04-13T06:08:56.754Z,24.33
2019-04-13T06:11:26.200Z,20.40
2019-04-13T06:13:57.927Z,17.33
2019-04-13T06:16:26.853Z,21.30
2019-04-13T06:18:56.378Z,19.70
2019-04-13T06:21:25.862Z,23.97
2019-04-13T06:23:55.419Z,22.07
2019-04-13T06:26:24.865Z,22.90
2019-04-13T06:28:54.305Z,20.20
2019-04-13T06:31:28.120Z,28.83
2019-04-13T06:34:02.126Z,22.17
2019-04-13T06:36:31.649Z,28.90
2019-04-13T06:39:01.119Z,20.70
2019-04-13T06:43:19.795Z,23.67
2019-04-13T06:45:49.407Z,21.30
2019-04-13T06:48:18.940Z,27.63
2019-04-13T06:50:48.400Z,22.77
2019-04-13T06:53:17.852Z,23.53
2019-04-13T06:55:47.365Z,27.33
2019-04-13T06:58:16.852Z,30.73
2019-04-13T07:00:47.839Z,24.03
2019-04-13T07:03:17.510Z,19.00
2019-04-13T07:05:47.007Z,22.40
2019-04-13T07:08:22.272Z,26.80
2019-04-13T07:10:53.893Z,22.17
2019-04-13T07:13:41.110Z,26.03
2019-04-13T07:16:27.202Z,25.07
2019-04-13T07:18:56.653Z,30.77
2019-04-13T07:21:26.114Z,29.50
2019-04-13T07:23:58.062Z,23.60
2019-04-13T07:26:26.827Z,24.63
2019-04-13T07:28:56.300Z,29.57
2019-04-13T07:31:25.862Z,24.27
2019-04-13T07:33:55.291Z,31.80
2019-04-13T07:36:24.752Z,24.07
2019-04-13T07:38:54.228Z,25.23
2019-04-13T07:41:23.740Z,29.17
2019-04-13T07:43:53.183Z,28.50
2019-04-13T07:46:43.468Z,27.77
2019-04-13T07:49:25.874Z,26.63
2019-04-13T07:52:02.965Z,27.53
2019-04-13T07:54:32.408Z,22.00
2019-04-13T07:57:02.436Z,30.17
2019-04-13T07:59:32.913Z,24.87
2019-04-13T08:02:02.354Z,24.23
2019-04-13T08:04:31.796Z,26.20
2019-04-13T08:07:01.269Z,25.90
2019-04-13T08:09:30.719Z,23.50
2019-04-13T08:12:00.321Z,29.10
2019-04-13T08:14:33.280Z,26.30
2019-04-13T08:17:06.534Z,29.03
2019-04-13T08:19:40.070Z,23.03
2019-04-13T08:22:09.509Z,26.90
2019-04-13T08:24:38.984Z,26.77
2019-04-13T08:27:08.445Z,25.83
2019-04-13T08:29:37.873Z,30.23
2019-04-13T08:32:07.807Z,16.37
2019-04-13T08:34:37.291Z,26.77
2019-04-13T08:37:06.743Z,23.67
2019-04-13T08:39:36.179Z,26.03
2019-04-13T08:42:18.773Z,24.20
2019-04-13T08:44:37.423Z,27.80
2019-04-13T08:47:07.031Z,26.27
2019-04-13T08:49:36.495Z,30.20
2019-04-13T08:52:06.016Z,20.10
2019-04-13T08:54:35.454Z,22.00
2019-04-13T08:57:05.002Z,21.57
2019-04-13T08:59:34.679Z,25.53
2019-04-13T09:02:04.265Z,25.30
2019-04-13T09:04:33.721Z,24.07
2019-04-13T09:07:04.379Z,27.93
2019-04-13T09:09:36.104Z,22.40
2019-04-13T09:12:07.794Z,24.07
2019-04-13T09:14:36.346Z,23.77
2019-04-13T09:17:07.055Z,21.17
2019-04-13T09:19:40.904Z,25.07
2019-04-13T09:22:11.724Z,23.73
2019-04-13T09:24:41.322Z,22.40
2019-04-13T09:27:10.791Z,25.17
2019-04-13T09:29:40.238Z,21.63
2019-04-13T09:32:09.676Z,25.73
2019-04-13T09:34:39.150Z,24.43
2019-04-13T09:37:08.649Z,25.33
2019-04-13T09:39:38.100Z,21.13
2019-04-13T09:42:10.317Z,23.80
2019-04-13T09:44:38.860Z,20.17
2019-04-13T09:47:12.816Z,24.90
2019-04-13T09:49:42.278Z,19.53
2019-04-13T09:52:11.730Z,18.90
2019-04-13T09:54:43.366Z,26.33
2019-04-13T09:57:12.366Z,24.27
2019-04-13T09:59:41.830Z,19.50
2019-04-13T10:02:11.440Z,25.13
2019-04-13T10:04:40.923Z,20.40
2019-04-13T10:07:10.376Z,14.33
2019-04-13T10:09:42.194Z,20.10
2019-04-13T10:12:14.733Z,25.07
2019-04-13T10:14:45.819Z,18.87
2019-04-13T10:17:16.925Z,18.50
2019-04-13T10:19:46.456Z,16.87
2019-04-13T10:22:20.331Z,25.07
2019-04-13T10:24:48.471Z,35.10
2019-04-13T10:27:19.461Z,21.13
2019-04-13T10:29:49.709Z,23.07
2019-04-13T10:32:19.943Z,18.80
2019-04-13T10:34:49.432Z,18.00
2019-04-13T10:37:18.883Z,15.43
2019-04-13T10:39:48.377Z,26.23
2019-04-13T10:42:17.852Z,21.93
2019-04-13T10:44:48.948Z,30.97
2019-04-13T10:47:22.968Z,29.30
2019-04-13T10:49:56.668Z,30.23
2019-04-13T10:52:26.109Z,19.77
2019-04-13T10:54:55.624Z,22.90
2019-04-13T10:57:25.097Z,19.20
2019-04-13T10:59:54.578Z,26.77
2019-04-13T11:02:24.018Z,19.57
2019-04-13T11:04:53.464Z,22.67
2019-04-13T11:07:22.996Z,18.43
2019-04-13T11:09:52.458Z,17.53
2019-04-13T11:12:21.906Z,19.73
2019-04-13T11:14:51.378Z,19.27
2019-04-13T11:17:20.829Z,21.97
2019-04-13T11:19:50.334Z,18.03
2019-04-13T11:22:22.107Z,21.07
2019-04-13T11:24:51.066Z,20.63
2019-04-13T11:27:20.728Z,20.57
2019-04-13T11:29:55.211Z,19.03
2019-04-13T11:32:21.779Z,19.83
2019-04-13T11:34:51.307Z,18.57
2019-04-13T11:37:20.831Z,25.43
2019-04-13T11:39:50.294Z,22.57
2019-04-13T11:42:21.487Z,21.73
2019-04-13T11:44:52.683Z,21.60
2019-04-13T11:47:26.998Z,22.50
2019-04-13T11:49:57.643Z,19.70
2019-04-13T11:52:27.567Z,19.33
2019-04-13T11:55:00.044Z,23.33
2019-04-13T11:57:28.200Z,24.37
2019-04-13T11:59:57.712Z,21.90
2019-04-13T12:02:28.885Z,22.10
2019-04-13T12:05:18.326Z,23.10
2019-04-13T12:07:52.152Z,23.60
2019-04-13T12:10:27.523Z,23.90
2019-04-13T12:13:12.462Z,23.63
2019-04-13T12:15:50.924Z,28.00
2019-04-13T12:18:33.898Z,24.53
2019-04-13T12:21:21.283Z,22.83
2019-04-13T12:23:52.498Z,20.50
2019-04-13T12:26:22.054Z,24.43
2019-04-13T12:28:52.249Z,30.00
2019-04-13T12:31:22.186Z,29.10
2019-04-13T12:33:52.391Z,28.00
2019-04-13T12:36:24.778Z,25.37
2019-04-13T12:38:57.033Z,27.53
2019-04-13T12:41:25.850Z,26.33
2019-04-13T12:43:55.329Z,27.60
2019-04-13T12:46:24.875Z,33.50
2019-04-13T12:48:54.437Z,31.53
2019-04-13T12:51:23.901Z,27.30
2019-04-13T12:53:53.369Z,31.00
2019-04-13T12:56:22.863Z,24.73
2019-04-13T12:58:55.011Z,27.83
2019-04-13T13:01:31.018Z,25.37
2019-04-13T13:04:00.456Z,28.83
2019-04-13T13:06:31.845Z,25.57
2019-04-13T13:09:01.890Z,23.30
2019-04-13T13:11:31.388Z,34.20
2019-04-13T13:14:00.840Z,29.00
2019-04-13T13:16:30.283Z,27.77
2019-04-13T13:19:00.724Z,32.57
2019-04-13T13:21:30.443Z,28.37
2019-04-13T13:23:59.922Z,30.17
2019-04-13T13:26:29.366Z,29.50
2019-04-13T13:28:58.843Z,34.87
2019-04-13T13:31:28.304Z,29.10
2019-04-13T13:33:57.779Z,32.47
2019-04-13T13:36:27.265Z,33.30
2019-04-13T13:38:56.779Z,37.43
2019-04-13T13:41:26.239Z,28.63
2019-04-13T13:43:55.688Z,33.93
2019-04-13T13:46:25.188Z,37.60
2019-04-13T13:48:54.668Z,32.23
2019-04-13T13:51:26.643Z,33.10
2019-04-13T13:53:55.384Z,35.30
2019-04-13T13:56:24.867Z,40.00
2019-04-13T13:58:55.982Z,36.47
2019-04-13T14:01:35.797Z,33.20
2019-04-13T14:04:05.324Z,34.50
2019-04-13T14:06:34.770Z,30.10
2019-04-13T14:09:08.393Z,29.17
2019-04-13T14:11:37.572Z,29.13
2019-04-13T14:14:07.494Z,34.77
2019-04-13T14:16:37.131Z,29.70
2019-04-13T14:19:06.587Z,33.13
2019-04-13T14:21:38.434Z,32.53
2019-04-13T14:24:07.430Z,34.30
2019-04-13T14:26:36.889Z,38.00
2019-04-13T14:29:10.526Z,24.67
2019-04-13T14:31:37.547Z,27.23
2019-04-13T14:34:07.017Z,27.77
2019-04-13T14:36:36.526Z,19.43
2019-04-13T14:39:07.644Z,22.73
2019-04-13T14:41:41.426Z,20.77
2019-04-13T14:44:08.258Z,21.13
2019-04-13T14:46:37.727Z,20.30
2019-04-13T14:49:07.177Z,23.83
2019-04-13T14:51:36.634Z,21.90
2019-04-13T14:54:06.104Z,27.63
2019-04-13T14:56:36.246Z,20.57
2019-04-13T14:59:05.773Z,18.40
2019-04-13T15:01:35.257Z,29.40
2019-04-13T15:04:04.772Z,18.57
2019-04-13T15:06:34.276Z,20.40
2019-04-13T15:09:05.313Z,26.53
2019-04-13T15:11:34.760Z,16.77
2019-04-13T15:14:06.825Z,18.00
2019-04-13T15:16:36.375Z,20.20
2019-04-13T15:19:25.024Z,18.67
2019-04-13T15:21:41.813Z,16.80
2019-04-13T15:24:14.384Z,22.43
2019-04-13T15:26:46.117Z,22.20
2019-04-13T15:29:18.884Z,17.27
2019-04-13T15:31:46.789Z,14.70
2019-04-13T15:34:16.549Z,19.93
2019-04-13T15:36:46.498Z,22.80
2019-04-13T15:39:18.616Z,19.50
2019-04-13T15:42:00.147Z,23.73
2019-04-13T15:44:20.017Z,23.57
2019-04-13T15:46:49.575Z,23.90
2019-04-13T15:49:19.727Z,16.50
2019-04-13T15:51:49.585Z,18.57
2019-04-13T15:54:20.651Z,18.03
2019-04-13T15:56:50.271Z,25.30
2019-04-13T15:59:21.326Z,18.77
2019-04-13T16:01:51.675Z,21.87
2019-04-13T16:04:21.249Z,18.00
2019-04-13T16:06:51.176Z,18.60
2019-04-13T16:09:22.961Z,17.87
2019-04-13T16:12:01.103Z,15.67
2019-04-13T16:14:25.228Z,17.50
2019-04-13T16:16:54.711Z,18.30
2019-04-13T16:19:26.311Z,14.23
2019-04-13T16:21:56.079Z,16.80
2019-04-13T16:24:26.591Z,16.37
2019-04-13T16:26:56.125Z,18.17
2019-04-13T16:29:40.259Z,17.10
2019-04-13T16:32:20.991Z,18.80
2019-04-13T16:34:53.018Z,19.00
2019-04-13T16:37:27.870Z,17.03
2019-04-13T16:39:57.871Z,15.20
2019-04-13T16:42:29.890Z,15.60
2019-04-13T16:45:16.907Z,16.70
2019-04-13T16:47:48.092Z,19.33
2019-04-13T16:50:26.003Z,19.63
2019-04-13T16:53:15.952Z,20.20
2019-04-13T16:55:53.839Z,18.90
2019-04-13T16:58:44.301Z,16.80
2019-04-13T17:01:18.901Z,16.20
2019-04-13T17:04:06.155Z,15.70
2019-04-13T17:06:36.145Z,19.07
2019-04-13T17:09:06.710Z,16.03
2019-04-13T17:11:36.340Z,19.70
2019-04-13T17:14:06.166Z,16.00
2019-04-13T17:16:36.268Z,18.13
2019-04-13T17:19:10.027Z,18.47
2019-04-13T17:21:41.142Z,21.20
2019-04-13T17:24:21.569Z,22.30
2019-04-13T17:26:52.728Z,20.30
2019-04-13T17:29:29.849Z,16.30
2019-04-13T17:32:06.744Z,15.93
2019-04-13T17:34:42.032Z,18.87
2019-04-13T17:37:13.280Z,13.43
2019-04-13T17:39:44.058Z,16.30
2019-04-13T17:42:36.793Z,14.27
2019-04-13T17:45:21.185Z,28.47
2019-04-13T17:47:55.916Z,23.30
2019-04-13T17:50:43.121Z,18.10
2019-04-13T17:53:17.952Z,18.00
2019-04-13T17:55:49.082Z,16.70
2019-04-13T17:58:35.464Z,16.43
2019-04-13T18:01:23.143Z,16.27
2019-04-13T18:03:54.336Z,16.47
2019-04-13T18:06:42.185Z,15.60
2019-04-13T18:09:25.573Z,16.67
2019-04-13T18:11:56.660Z,15.10
2019-04-13T18:14:44.598Z,16.00
2019-04-13T18:17:15.876Z,15.53
2019-04-13T18:19:46.390Z,15.70
2019-04-13T18:22:16.432Z,16.63
2019-04-13T18:24:47.020Z,15.30
2019-04-13T18:27:17.358Z,14.10
2019-04-13T18:29:57.187Z,15.40
2019-04-13T18:32:19.482Z,15.20
2019-04-13T18:34:49.799Z,15.10
2019-04-13T18:37:20.007Z,16.37
2019-04-13T18:39:52.780Z,13.23
2019-04-13T18:42:21.817Z,16.07
2019-04-13T18:44:51.381Z,11.27
2019-04-13T18:47:21.958Z,15.00
2019-04-13T18:49:51.417Z,17.53
2019-04-13T18:52:21.745Z,16.30
2019-04-13T18:54:53.097Z,17.20
2019-04-13T18:57:23.250Z,19.90
2019-04-13T18:59:54.443Z,16.77
2019-04-13T19:02:24.937Z,12.67
2019-04-13T19:04:54.466Z,16.50
2019-04-13T19:07:23.962Z,16.73
2019-04-13T19:09:53.442Z,19.00
2019-04-13T19:12:22.880Z,16.80
2019-04-13T19:14:52.457Z,20.17
2019-04-13T19:17:21.858Z,17.03
2019-04-13T19:19:51.303Z,19.37
2019-04-13T19:22:20.820Z,16.60
2019-04-13T19:24:50.577Z,22.83
2019-04-13T19:27:20.075Z,17.37
2019-04-13T19:29:49.561Z,26.33
2019-04-13T19:32:19.002Z,26.60
2019-04-13T19:34:48.447Z,12.03
2019-04-13T19:37:17.983Z,24.60
2019-04-13T19:39:47.457Z,25.67
2019-04-13T19:42:16.887Z,29.00
2019-04-13T19:44:46.360Z,23.00
2019-04-13T19:47:15.839Z,27.87
2019-04-13T19:49:45.336Z,28.60
2019-04-13T19:52:35.724Z,29.60
2019-04-13T19:55:08.585Z,32.20
2019-04-13T19:57:38.201Z,30.17
2019-04-13T20:00:10.815Z,22.57
2019-04-13T20:02:40.259Z,23.83
2019-04-13T20:05:09.934Z,24.90
2019-04-13T20:07:39.412Z,22.80
2019-04-13T20:10:10.640Z,33.10
2019-04-13T20:12:42.589Z,20.90
2019-04-13T20:15:13.962Z,19.73
2019-04-13T20:17:43.423Z,33.37
2019-04-13T20:20:13.298Z,24.00
2019-04-13T20:22:42.773Z,36.00
2019-04-13T20:25:13.421Z,32.23
2019-04-13T20:27:43.457Z,29.40
2019-04-13T20:30:13.476Z,26.20
2019-04-13T20:32:42.931Z,20.23
2019-04-13T20:35:12.772Z,25.33
2019-04-13T20:37:42.604Z,28.97
2019-04-13T20:40:14.292Z,30.27
2019-04-13T20:42:43.884Z,32.83
2019-04-13T20:45:15.713Z,30.30
2019-04-13T20:47:45.879Z,38.03
2019-04-13T20:50:15.751Z,33.77
2019-04-13T20:52:45.255Z,25.27
2019-04-13T20:55:15.866Z,34.90
2019-04-13T20:57:45.709Z,41.37
2019-04-13T21:00:16.125Z,34.30
2019-04-13T21:02:46.236Z,32.43
2019-04-13T21:05:18.594Z,29.40
2019-04-13T21:07:48.838Z,33.93
2019-04-13T21:10:18.454Z,39.90
2019-04-13T21:12:47.902Z,29.17
2019-04-13T21:15:18.255Z,24.73
2019-04-13T21:17:48.568Z,23.40
2019-04-13T21:20:18.612Z,21.53
2019-04-13T21:22:48.564Z,19.30
2019-04-13T21:25:18.443Z,22.00
2019-04-13T21:27:48.850Z,25.03
2019-04-13T21:30:18.640Z,24.40
2019-04-13T21:32:48.730Z,28.27
2019-04-13T21:35:18.758Z,26.50
2019-04-13T21:37:48.764Z,25.40
2019-04-13T21:40:18.773Z,26.57
2019-04-13T21:42:49.086Z,29.27
2019-04-13T21:45:18.924Z,26.90
2019-04-13T21:47:49.214Z,30.70
2019-04-13T21:50:32.725Z,21.70
2019-04-13T21:53:07.146Z,20.57
2019-04-13T21:55:38.358Z,25.60
2019-04-13T21:58:09.916Z,25.87
2019-04-13T22:01:21.332Z,26.93
2019-04-13T22:03:51.240Z,24.27
2019-04-13T22:06:21.295Z,37.00
2019-04-13T22:08:51.347Z,26.43
2019-04-13T22:11:21.175Z,25.97
2019-04-13T22:13:51.094Z,22.10
2019-04-13T22:16:21.234Z,24.87
2019-04-13T22:18:51.772Z,27.33
2019-04-13T22:21:24.094Z,27.30
2019-04-13T22:23:54.167Z,34.77
2019-04-13T22:26:24.078Z,25.10
2019-04-13T22:29:00.799Z,31.63
2019-04-13T22:31:43.912Z,34.40
2019-04-13T22:34:15.010Z,34.27
2019-04-13T22:36:46.379Z,29.70
2019-04-13T22:39:16.073Z,33.70
2019-04-13T22:41:45.936Z,34.83
2019-04-13T22:44:16.084Z,38.17
2019-04-13T22:46:46.372Z,35.60
2019-04-13T22:49:21.054Z,41.30
2019-04-13T22:51:55.472Z,29.60
2019-04-13T22:54:43.020Z,31.43
2019-04-13T22:57:30.723Z,19.23
2019-04-13T23:00:00.252Z,34.93
2019-04-13T23:02:47.594Z,31.67
2019-04-13T23:05:17.648Z,34.20
2019-04-13T23:07:47.849Z,32.97
2019-04-13T23:10:18.170Z,30.40
2019-04-13T23:12:48.651Z,36.50
2019-04-13T23:15:24.328Z,30.87
2019-04-13T23:17:50.934Z,34.60
2019-04-13T23:20:21.417Z,23.20
2019-04-13T23:22:51.969Z,30.37
2019-04-13T23:25:22.187Z,20.90
2019-04-13T23:27:52.744Z,22.30
2019-04-13T23:30:22.622Z,18.87
2019-04-13T23:32:53.124Z,23.33
2019-04-13T23:35:23.507Z,16.63
2019-04-13T23:37:54.142Z,30.10
2019-04-13T23:40:24.682Z,26.73
2019-04-13T23:42:55.011Z,22.10
2019-04-13T23:45:31.029Z,21.73
2019-04-13T23:47:58.221Z,30.07
2019-04-13T23:50:28.552Z,27.80
2019-04-13T23:52:58.907Z,27.97
2019-04-13T23:55:48.685Z,26.80
2019-04-13T23:58:29.931Z,31.40
